Time;durP1;ratioP1;P1;durP2;ratioP2;P2;SDS_P1;SDS_P2;PMS_P1;PMS_P2;Temp;Humidity;BMP_temperature;BMP_pressure;BME280_temperature;BME280_humidity;BME280_pressure;Samples;Min_cycle;Max_cycle;Signal;HPM_P1;HPM_P2
2022/04/23 00:00:23;;;;;;;75.03;32.10;;;;;;;;;;4985240;28;20042;-66
2022/04/23 00:02:49;;;;;;;79.38;32.17;;;;;;;;;;4981820;28;20030;-66
2022/04/23 00:05:15;;;;;;;88.90;36.60;;;;;;;;;;4982445;28;20069;-66
2022/04/23 00:07:41;;;;;;;85.50;32.75;;;;;;;;;;4984304;28;20044;-66
2022/04/23 00:10:11;;;;;;;86.25;34.63;;;;;;;;;;4973587;28;20034;-66
2022/04/23 00:12:37;;;;;;;79.25;32.60;;;;;;;;;;4983658;28;20023;-66
2022/04/23 00:15:06;;;;;;;82.68;32.97;;;;;;;;;;4980369;28;20050;-66
2022/04/23 00:17:33;;;;;;;86.53;34.50;;;;;;;;;;4975980;28;20062;-66
2022/04/23 00:20:00;;;;;;;84.00;34.25;;;;;;;;;;4974536;28;20072;-66
2022/04/23 00:22:27;;;;;;;85.13;35.70;;;;;;;;;;4985127;28;20026;-66
2022/04/23 00:24:53;;;;;;;85.35;34.58;;;;;;;;;;4978726;28;20038;-66
2022/04/23 00:27:19;;;;;;;87.85;33.17;;;;;;;;;;4977811;28;20130;-66
2022/04/23 00:29:45;;;;;;;83.10;34.00;;;;;;;;;;4984383;28;20023;-66
2022/04/23 00:32:12;;;;;;;83.97;32.67;;;;;;;;;;4973015;28;20076;-66
2022/04/23 00:34:38;;;;;;;82.85;32.92;;;;;;;;;;4983650;28;20027;-66
2022/04/23 00:37:04;;;;;;;88.25;32.67;;;;;;;;;;4979654;28;20476;-66
2022/04/23 00:39:30;;;;;;;76.88;32.05;;;;;;;;;;4987668;28;20069;-66
2022/04/23 00:41:59;;;;;;;87.88;33.72;;;;;;;;;;4988410;28;20037;-66
2022/04/23 00:44:25;;;;;;;88.25;32.28;;;;;;;;;;4977935;28;20469;-66
2022/04/23 00:46:51;;;;;;;78.55;34.50;;;;;;;;;;4977466;28;20037;-66
2022/04/23 00:49:17;;;;;;;84.95;35.97;;;;;;;;;;4975858;28;20514;-66
2022/04/23 00:51:43;;;;;;;83.55;32.13;;;;;;;;;;4984793;28;20498;-66
2022/04/23 00:54:10;;;;;;;76.35;31.17;;;;;;;;;;4988788;28;20110;-66
2022/04/23 00:56:40;;;;;;;76.05;30.83;;;;;;;;;;4978937;28;20400;-66
2022/04/23 00:59:11;;;;;;;69.20;29.65;;;;;;;;;;4984382;28;20396;-66
2022/04/23 01:01:40;;;;;;;75.95;29.75;;;;;;;;;;4973889;28;20373;-66
2022/04/23 01:04:06;;;;;;;76.38;32.60;;;;;;;;;;4989104;28;20387;-66
2022/04/23 01:06:34;;;;;;;75.30;29.20;;;;;;;;;;4978167;28;20066;-66
2022/04/23 01:09:05;;;;;;;86.40;30.23;;;;;;;;;;4991347;28;20014;-66
2022/04/23 01:11:32;;;;;;;77.88;29.45;;;;;;;;;;4982143;28;20019;-66
2022/04/23 01:13:58;;;;;;;78.95;30.45;;;;;;;;;;4981043;28;20026;-66
2022/04/23 01:16:24;;;;;;;75.22;30.38;;;;;;;;;;4985689;28;20041;-66
2022/04/23 01:18:50;;;;;;;82.43;30.92;;;;;;;;;;4992473;28;20053;-66
2022/04/23 01:21:16;;;;;;;93.22;31.45;;;;;;;;;;4989504;28;20457;-66
2022/04/23 01:23:45;;;;;;;78.88;31.63;;;;;;;;;;4986618;28;20084;-66
2022/04/23 01:26:11;;;;;;;76.55;29.30;;;;;;;;;;4972883;28;20779;-66
2022/04/23 01:28:39;;;;;;;78.47;31.70;;;;;;;;;;4986382;28;20037;-66
2022/04/23 01:31:06;;;;;;;83.13;30.13;;;;;;;;;;4988202;28;20376;-66
2022/04/23 01:33:36;;;;;;;83.05;28.95;;;;;;;;;;4977440;28;20058;-66
2022/04/23 01:36:03;;;;;;;64.88;28.90;;;;;;;;;;4983920;28;20085;-66
2022/04/23 01:38:29;;;;;;;73.18;30.30;;;;;;;;;;4984739;28;20038;-66
2022/04/23 01:40:56;;;;;;;75.00;30.80;;;;;;;;;;4991886;28;20103;-66
2022/04/23 01:43:22;;;;;;;75.90;28.58;;;;;;;;;;4985871;28;20027;-66
2022/04/23 01:45:48;;;;;;;65.10;29.48;;;;;;;;;;4985758;28;20046;-66
2022/04/23 01:48:14;;;;;;;77.43;30.38;;;;;;;;;;4982093;28;20027;-66
2022/04/23 01:50:40;;;;;;;84.40;30.23;;;;;;;;;;4979185;28;20031;-66
2022/04/23 01:53:06;;;;;;;74.45;28.92;;;;;;;;;;4986650;28;20035;-66
2022/04/23 01:55:33;;;;;;;73.03;27.67;;;;;;;;;;4985916;28;20038;-66
2022/04/23 01:57:59;;;;;;;67.85;26.42;;;;;;;;;;4983425;28;20508;-66
2022/04/23 02:00:26;;;;;;;70.10;28.05;;;;;;;;;;4981845;28;20042;-66
2022/04/23 02:02:52;;;;;;;72.00;27.13;;;;;;;;;;4976538;28;20031;-66
2022/04/23 02:05:18;;;;;;;64.20;27.13;;;;;;;;;;4986319;28;20073;-66
2022/04/23 02:07:45;;;;;;;70.75;26.48;;;;;;;;;;4985658;28;20051;-66
2022/04/23 02:10:12;;;;;;;82.03;26.20;;;;;;;;;;4979950;28;20027;-66
2022/04/23 02:12:39;;;;;;;67.13;25.15;;;;;;;;;;4978304;28;20485;-66
2022/04/23 02:15:12;;;;;;;72.88;25.80;;;;;;;;;;4984279;28;20079;-66
2022/04/23 02:17:39;;;;;;;69.38;25.83;;;;;;;;;;4975636;28;20121;-66
2022/04/23 02:20:07;;;;;;;72.20;25.63;;;;;;;;;;4981853;28;20080;-66
2022/04/23 02:22:33;;;;;;;71.05;25.88;;;;;;;;;;4982540;28;20026;-66
2022/04/23 02:24:59;;;;;;;72.75;25.10;;;;;;;;;;4975520;28;20122;-66
2022/04/23 02:27:25;;;;;;;66.65;23.92;;;;;;;;;;4986488;28;20027;-66
2022/04/23 02:29:52;;;;;;;72.43;24.08;;;;;;;;;;4976495;28;20015;-66
2022/04/23 02:32:18;;;;;;;68.20;24.90;;;;;;;;;;4981044;28;20023;-66
2022/04/23 02:34:44;;;;;;;70.40;25.40;;;;;;;;;;4983812;28;20022;-66
2022/04/23 02:37:11;;;;;;;70.28;24.20;;;;;;;;;;4974067;28;20069;-66
2022/04/23 02:39:39;;;;;;;67.22;24.05;;;;;;;;;;4986804;28;20456;-66
2022/04/23 02:42:05;;;;;;;60.42;24.38;;;;;;;;;;4979608;28;20113;-66
2022/04/23 02:44:32;;;;;;;63.05;23.60;;;;;;;;;;4981139;28;20030;-66
2022/04/23 02:46:59;;;;;;;71.90;23.98;;;;;;;;;;4975935;28;20037;-66
2022/04/23 02:49:25;;;;;;;70.45;25.40;;;;;;;;;;4986327;28;20491;-66
2022/04/23 02:51:51;;;;;;;55.83;22.70;;;;;;;;;;4973107;28;20054;-66
2022/04/23 02:54:18;;;;;;;62.25;21.45;;;;;;;;;;4979247;28;20391;-66
2022/04/23 02:56:45;;;;;;;65.95;21.33;;;;;;;;;;4972193;28;154832;-66
2022/04/23 02:59:12;;;;;;;62.67;22.52;;;;;;;;;;4986724;28;20038;-66
2022/04/23 03:01:39;;;;;;;68.00;21.73;;;;;;;;;;4974953;28;20033;-66
2022/04/23 03:04:05;;;;;;;66.50;21.98;;;;;;;;;;4984986;28;20054;-66
2022/04/23 03:06:33;;;;;;;57.67;22.40;;;;;;;;;;4971487;28;20474;-66
2022/04/23 03:09:03;;;;;;;64.32;22.25;;;;;;;;;;4984708;28;20026;-66
2022/04/23 03:11:32;;;;;;;61.22;20.35;;;;;;;;;;4979701;28;20050;-66
2022/04/23 03:13:58;;;;;;;61.55;22.23;;;;;;;;;;4979461;28;20031;-66
2022/04/23 03:16:26;;;;;;;62.72;23.40;;;;;;;;;;4977262;28;20030;-66
2022/04/23 03:18:53;;;;;;;57.58;21.30;;;;;;;;;;4977735;28;20034;-66
2022/04/23 03:21:19;;;;;;;58.47;23.05;;;;;;;;;;4975269;28;20027;-66
2022/04/23 03:23:45;;;;;;;53.20;20.52;;;;;;;;;;4973089;28;20043;-66
2022/04/23 03:26:11;;;;;;;62.42;22.15;;;;;;;;;;4982263;28;20046;-66
2022/04/23 03:28:38;;;;;;;56.60;21.38;;;;;;;;;;4987158;28;20026;-66
2022/04/23 03:31:04;;;;;;;65.07;22.58;;;;;;;;;;4987072;28;20029;-65
2022/04/23 03:33:30;;;;;;;65.47;23.83;;;;;;;;;;4973951;28;20080;-66
2022/04/23 03:35:57;;;;;;;53.38;21.08;;;;;;;;;;4983266;28;20034;-65
2022/04/23 03:38:23;;;;;;;62.20;20.88;;;;;;;;;;4977779;28;20022;-65
2022/04/23 03:40:53;;;;;;;64.68;23.58;;;;;;;;;;4974196;28;20045;-65
2022/04/23 03:43:25;;;;;;;71.93;23.20;;;;;;;;;;4970812;28;20044;-65
2022/04/23 03:45:52;;;;;;;64.50;22.23;;;;;;;;;;4975009;28;20018;-65
2022/04/23 03:48:18;;;;;;;55.33;20.33;;;;;;;;;;4976813;28;20023;-65
2022/04/23 03:50:45;;;;;;;65.53;21.45;;;;;;;;;;4989603;28;20030;-65
2022/04/23 03:53:12;;;;;;;59.97;20.20;;;;;;;;;;4978234;28;20103;-65
2022/04/23 03:55:38;;;;;;;70.90;21.73;;;;;;;;;;4972773;28;20042;-65
2022/04/23 03:58:04;;;;;;;67.72;20.92;;;;;;;;;;4984160;28;20039;-65
2022/04/23 04:00:31;;;;;;;73.15;23.30;;;;;;;;;;4979275;28;20118;-65
2022/04/23 04:02:57;;;;;;;71.97;21.90;;;;;;;;;;4977858;28;20030;-66
2022/04/23 04:05:24;;;;;;;63.13;21.85;;;;;;;;;;4983767;28;20076;-65
2022/04/23 04:07:51;;;;;;;72.22;23.33;;;;;;;;;;4971016;28;20030;-65
2022/04/23 04:10:18;;;;;;;65.28;22.60;;;;;;;;;;4973524;28;20391;-65
2022/04/23 04:12:45;;;;;;;74.57;22.90;;;;;;;;;;4970882;28;20485;-65
2022/04/23 04:15:12;;;;;;;59.13;21.45;;;;;;;;;;4985287;28;20026;-64
2022/04/23 04:17:41;;;;;;;74.35;23.30;;;;;;;;;;4980341;28;20026;-64
2022/04/23 04:20:11;;;;;;;61.88;22.10;;;;;;;;;;4975037;28;20029;-64
2022/04/23 04:22:38;;;;;;;58.92;22.27;;;;;;;;;;4980272;28;20035;-65
2022/04/23 04:25:04;;;;;;;69.03;22.98;;;;;;;;;;4982876;28;20031;-64
2022/04/23 04:27:30;;;;;;;67.13;23.85;;;;;;;;;;4973112;28;20114;-65
2022/04/23 04:29:56;;;;;;;67.78;22.83;;;;;;;;;;4987987;28;20015;-64
2022/04/23 04:32:23;;;;;;;68.15;23.25;;;;;;;;;;4982598;28;20137;-65
2022/04/23 04:34:49;;;;;;;69.47;22.70;;;;;;;;;;4979933;28;20105;-64
2022/04/23 04:37:15;;;;;;;63.83;23.17;;;;;;;;;;4975590;28;20031;-65
2022/04/23 04:39:42;;;;;;;70.43;22.77;;;;;;;;;;4986608;28;20026;-65
2022/04/23 04:42:09;;;;;;;66.22;22.52;;;;;;;;;;4987981;28;20056;-64
2022/04/23 04:44:35;;;;;;;78.20;23.65;;;;;;;;;;4980777;28;20490;-65
2022/04/23 04:47:09;;;;;;;84.80;22.52;;;;;;;;;;4983313;28;20507;-65
2022/04/23 04:49:35;;;;;;;67.15;21.98;;;;;;;;;;4980214;28;20061;-65
2022/04/23 04:52:01;;;;;;;71.35;21.48;;;;;;;;;;4985572;28;20026;-64
2022/04/23 04:54:27;;;;;;;73.97;21.20;;;;;;;;;;4982125;28;20026;-64
2022/04/23 04:56:54;;;;;;;65.95;20.77;;;;;;;;;;4979566;28;20160;-64
2022/04/23 04:59:23;;;;;;;56.47;21.95;;;;;;;;;;4979588;28;20511;-64
2022/04/23 05:01:50;;;;;;;58.47;23.10;;;;;;;;;;4977849;28;20411;-64
2022/04/23 05:04:16;;;;;;;57.97;21.60;;;;;;;;;;4978696;28;20030;-65
2022/04/23 05:06:43;;;;;;;70.18;27.52;;;;;;;;;;4976421;28;20026;-65
2022/04/23 05:09:09;;;;;;;66.50;21.95;;;;;;;;;;4974985;28;20026;-65
2022/04/23 05:11:35;;;;;;;58.97;23.23;;;;;;;;;;4976354;28;20473;-65
2022/04/23 05:14:01;;;;;;;74.10;22.58;;;;;;;;;;4974185;28;20045;-64
2022/04/23 05:16:27;;;;;;;61.35;22.40;;;;;;;;;;4993823;28;20077;-65
2022/04/23 05:18:53;;;;;;;64.32;21.58;;;;;;;;;;4975699;28;20412;-64
2022/04/23 05:21:19;;;;;;;58.60;20.92;;;;;;;;;;4978542;28;20030;-64
2022/04/23 05:23:45;;;;;;;53.75;22.38;;;;;;;;;;4972680;28;20056;-64
2022/04/23 05:26:11;;;;;;;65.75;22.85;;;;;;;;;;4970256;28;20023;-64
2022/04/23 05:28:39;;;;;;;64.72;22.88;;;;;;;;;;4970972;28;20031;-65
2022/04/23 05:31:05;;;;;;;57.58;22.02;;;;;;;;;;4980733;28;20026;-64
2022/04/23 05:33:31;;;;;;;62.85;21.83;;;;;;;;;;4981205;28;20027;-64
2022/04/23 05:35:57;;;;;;;77.43;25.08;;;;;;;;;;4976559;28;20026;-64
2022/04/23 05:38:24;;;;;;;56.78;23.35;;;;;;;;;;4975513;28;20028;-64
2022/04/23 05:40:50;;;;;;;62.75;22.30;;;;;;;;;;4975794;28;20035;-65
2022/04/23 05:43:16;;;;;;;58.78;22.35;;;;;;;;;;4978951;28;20041;-65
2022/04/23 05:45:43;;;;;;;68.07;22.88;;;;;;;;;;4978712;28;20113;-64
2022/04/23 05:48:09;;;;;;;57.65;23.65;;;;;;;;;;4977073;28;20031;-64
2022/04/23 05:50:36;;;;;;;59.65;23.27;;;;;;;;;;4980519;28;20027;-65
2022/04/23 05:53:02;;;;;;;76.60;24.55;;;;;;;;;;4978955;28;20485;-65
2022/04/23 05:55:28;;;;;;;59.95;23.00;;;;;;;;;;4979656;28;20506;-64
2022/04/23 05:57:55;;;;;;;68.00;22.50;;;;;;;;;;4980324;28;20042;-64
2022/04/23 06:00:21;;;;;;;61.38;24.63;;;;;;;;;;4972268;28;20049;-65
2022/04/23 06:02:47;;;;;;;69.68;25.35;;;;;;;;;;4978554;28;20060;-65
2022/04/23 06:05:14;;;;;;;69.18;25.85;;;;;;;;;;4975103;28;20039;-65
2022/04/23 06:07:40;;;;;;;76.85;25.35;;;;;;;;;;4975548;28;20492;-65
2022/04/23 06:10:07;;;;;;;72.13;24.77;;;;;;;;;;4973804;28;20015;-65
2022/04/23 06:12:34;;;;;;;59.97;23.90;;;;;;;;;;4979734;28;20015;-65
2022/04/23 06:15:00;;;;;;;65.75;24.60;;;;;;;;;;4979884;28;20117;-65
2022/04/23 06:17:28;;;;;;;64.05;24.20;;;;;;;;;;4984747;28;20953;-65
2022/04/23 06:19:55;;;;;;;74.35;26.05;;;;;;;;;;4982793;28;20038;-65
2022/04/23 06:22:24;;;;;;;59.63;22.88;;;;;;;;;;4985257;28;20037;-65
2022/04/23 06:24:51;;;;;;;64.45;25.75;;;;;;;;;;5000345;28;20044;-65
2022/04/23 06:27:17;;;;;;;73.22;25.13;;;;;;;;;;4982550;28;20037;-65
2022/04/23 06:29:44;;;;;;;73.25;24.58;;;;;;;;;;4983791;28;20054;-65
2022/04/23 06:32:10;;;;;;;66.45;25.20;;;;;;;;;;4979164;28;20033;-65
2022/04/23 06:34:39;;;;;;;67.75;25.30;;;;;;;;;;4980513;28;20132;-65
2022/04/23 06:37:05;;;;;;;72.15;27.58;;;;;;;;;;4981128;28;20026;-66
2022/04/23 06:39:32;;;;;;;63.92;24.77;;;;;;;;;;4984123;28;20373;-65
2022/04/23 06:41:58;;;;;;;63.17;23.70;;;;;;;;;;4979930;28;20014;-65
2022/04/23 06:44:25;;;;;;;57.30;25.70;;;;;;;;;;4979786;28;20034;-65
2022/04/23 06:46:51;;;;;;;68.90;26.42;;;;;;;;;;4981981;28;20023;-65
2022/04/23 06:49:17;;;;;;;59.53;26.10;;;;;;;;;;4977430;28;20261;-65
2022/04/23 06:51:43;;;;;;;74.63;26.17;;;;;;;;;;4981286;28;20019;-65
2022/04/23 06:54:09;;;;;;;67.22;24.95;;;;;;;;;;4982109;28;20080;-65
2022/04/23 06:56:37;;;;;;;70.63;25.75;;;;;;;;;;4973278;28;20039;-65
2022/04/23 06:59:04;;;;;;;74.82;25.05;;;;;;;;;;4977763;28;20046;-65
2022/04/23 07:01:30;;;;;;;68.47;24.50;;;;;;;;;;4982148;28;20488;-65
2022/04/23 07:03:56;;;;;;;66.47;23.52;;;;;;;;;;4984268;28;20389;-65
2022/04/23 07:06:22;;;;;;;71.10;24.10;;;;;;;;;;4984926;28;20038;-64
2022/04/23 07:08:49;;;;;;;65.30;23.58;;;;;;;;;;4984804;28;20035;-65
2022/04/23 07:11:15;;;;;;;67.05;25.83;;;;;;;;;;4986776;28;20022;-65
2022/04/23 07:13:41;;;;;;;56.30;23.13;;;;;;;;;;4986872;28;20079;-65
2022/04/23 07:16:09;;;;;;;69.10;25.10;;;;;;;;;;4984592;28;20045;-65
2022/04/23 07:18:39;;;;;;;81.07;26.75;;;;;;;;;;4985811;28;20018;-65
2022/04/23 07:21:05;;;;;;;67.43;25.63;;;;;;;;;;4986121;28;20117;-65
2022/04/23 07:26:16;;;;;;;72.20;27.00;;;;;;;;;;4975046;28;20416;-65
2022/04/23 07:28:42;;;;;;;54.67;24.60;;;;;;;;;;4999151;28;20038;-65
2022/04/23 07:31:09;;;;;;;65.43;24.23;;;;;;;;;;4980230;28;20026;-65
2022/04/23 07:39:04;;;;;;;75.65;28.20;;;;;;;;;;4976656;28;20041;-65
2022/04/23 07:41:31;;;;;;;70.10;25.15;;;;;;;;;;4977248;28;20035;-65
2022/04/23 07:43:57;;;;;;;67.03;25.40;;;;;;;;;;4983542;28;20026;-65
2022/04/23 07:46:24;;;;;;;72.13;27.50;;;;;;;;;;5013472;28;20507;-65
2022/04/23 07:48:50;;;;;;;62.38;27.27;;;;;;;;;;4974928;28;20491;-65
2022/04/23 07:51:17;;;;;;;81.65;30.02;;;;;;;;;;4972799;28;20403;-65
2022/04/23 07:53:43;;;;;;;69.13;26.90;;;;;;;;;;4978889;28;20673;-65
2022/04/23 07:56:09;;;;;;;67.03;27.05;;;;;;;;;;4992057;28;20050;-65
2022/04/23 07:58:35;;;;;;;65.82;26.83;;;;;;;;;;4989624;28;20035;-65
2022/04/23 08:01:02;;;;;;;75.63;26.95;;;;;;;;;;4986567;28;20193;-66
2022/04/23 08:03:28;;;;;;;69.45;25.98;;;;;;;;;;4982858;28;20042;-66
2022/04/23 08:05:54;;;;;;;69.85;25.92;;;;;;;;;;4984753;28;20034;-66
2022/04/23 08:08:24;;;;;;;60.13;25.27;;;;;;;;;;5000728;28;20061;-66
2022/04/23 08:10:50;;;;;;;59.45;25.88;;;;;;;;;;4980338;28;20468;-66
2022/04/23 08:13:17;;;;;;;72.63;26.40;;;;;;;;;;4970734;28;20541;-66
2022/04/23 08:15:43;;;;;;;63.05;25.63;;;;;;;;;;4976009;28;20046;-65
2022/04/23 08:18:10;;;;;;;59.22;25.88;;;;;;;;;;4984454;28;20535;-66
2022/04/23 08:20:38;;;;;;;59.47;26.65;;;;;;;;;;4982185;28;20026;-66
2022/04/23 08:23:04;;;;;;;61.55;25.67;;;;;;;;;;4986220;28;20030;-66
2022/04/23 08:25:30;;;;;;;61.88;24.65;;;;;;;;;;4976906;28;20083;-66
2022/04/23 08:30:42;;;;;;;63.85;26.40;;;;;;;;;;4979497;28;20043;-66
2022/04/23 08:33:08;;;;;;;69.13;26.08;;;;;;;;;;4985684;28;20103;-66
2022/04/23 08:35:36;;;;;;;61.45;25.02;;;;;;;;;;4984080;28;20035;-66
2022/04/23 08:38:03;;;;;;;64.10;25.17;;;;;;;;;;4985740;28;20134;-66
2022/04/23 08:40:34;;;;;;;61.53;25.67;;;;;;;;;;4983164;28;20022;-65
2022/04/23 08:43:01;;;;;;;70.75;27.85;;;;;;;;;;4981524;28;20026;-66
2022/04/23 08:45:27;;;;;;;65.95;26.02;;;;;;;;;;4979608;28;20030;-65
2022/04/23 08:47:56;;;;;;;58.25;24.67;;;;;;;;;;4976293;28;20109;-65
2022/04/23 08:50:22;;;;;;;57.00;25.48;;;;;;;;;;4981569;28;20049;-66
2022/04/23 08:52:55;;;;;;;62.60;24.52;;;;;;;;;;4985073;28;20031;-66
2022/04/23 08:55:22;;;;;;;51.17;24.08;;;;;;;;;;4986708;28;20030;-66
2022/04/23 08:57:48;;;;;;;64.10;27.73;;;;;;;;;;4982404;28;20517;-66
2022/04/23 09:00:15;;;;;;;60.47;25.63;;;;;;;;;;4985453;28;20411;-65
2022/04/23 09:02:42;;;;;;;59.40;24.52;;;;;;;;;;4984311;28;20030;-65
2022/04/23 09:05:10;;;;;;;64.97;25.27;;;;;;;;;;4980185;28;20385;-66
2022/04/23 09:07:36;;;;;;;55.85;23.70;;;;;;;;;;4983087;28;20007;-66
2022/04/23 09:10:03;;;;;;;54.30;24.38;;;;;;;;;;4982576;28;20442;-65
2022/04/23 09:12:30;;;;;;;56.67;24.20;;;;;;;;;;4985720;28;20521;-66
2022/04/23 09:15:06;;;;;;;55.63;23.48;;;;;;;;;;4976233;28;20029;-66
2022/04/23 09:25:50;;;;;;;55.80;22.15;;;;;;;;;;4984146;28;20483;-66
2022/04/23 09:28:23;;;;;;;57.35;22.70;;;;;;;;;;4982512;28;20018;-66
2022/04/23 09:30:56;;;;;;;56.85;23.38;;;;;;;;;;4983126;28;20103;-66
2022/04/23 09:33:29;;;;;;;55.33;23.88;;;;;;;;;;4982150;28;20494;-65
2022/04/23 09:35:55;;;;;;;;;;;;;;;;;;4980773;28;20039;-65
2022/04/23 09:38:21;;;;;;;57.28;23.05;;;;;;;;;;4976726;28;19959;-65
2022/04/23 09:40:51;;;;;;;58.85;23.73;;;;;;;;;;4992260;28;20137;-65
2022/04/23 09:43:24;;;;;;;58.38;22.27;;;;;;;;;;4987389;28;20035;-65
2022/04/23 09:45:59;;;;;;;56.28;21.60;;;;;;;;;;4991638;28;20445;-65
2022/04/23 09:48:25;;;;;;;61.90;22.20;;;;;;;;;;4991253;28;20118;-65
2022/04/23 09:50:51;;;;;;;51.70;23.30;;;;;;;;;;4989862;28;20027;-65
2022/04/23 09:53:21;;;;;;;57.42;24.30;;;;;;;;;;4991081;28;20030;-65
2022/04/23 09:55:51;;;;;;;55.15;23.15;;;;;;;;;;4982090;28;20095;-65
2022/04/23 09:58:17;;;;;;;53.33;22.30;;;;;;;;;;4986814;28;20027;-65
2022/04/23 10:00:44;;;;;;;52.65;23.48;;;;;;;;;;4971972;28;20042;-65
2022/04/23 10:03:11;;;;;;;56.72;22.95;;;;;;;;;;5073758;28;20028;-65
2022/04/23 10:05:41;;;;;;;51.53;21.92;;;;;;;;;;5073655;28;20514;-65
2022/04/23 10:08:12;;;;;;;72.22;24.55;;;;;;;;;;4977186;28;20066;-65
2022/04/23 10:10:41;;;;;;;59.10;23.80;;;;;;;;;;4971857;28;20485;-65
2022/04/23 10:13:09;;;;;;;51.45;21.52;;;;;;;;;;4971508;28;20034;-65
2022/04/23 10:15:37;;;;;;;56.95;23.40;;;;;;;;;;4971606;28;20324;-65
2022/04/23 10:18:04;;;;;;;61.25;24.40;;;;;;;;;;4971617;28;20027;-65
2022/04/23 10:20:30;;;;;;;65.25;23.77;;;;;;;;;;4971555;28;20038;-65
2022/04/23 10:23:17;;;;;;;67.38;24.92;;;;;;;;;;4986392;28;20041;-65
2022/04/23 10:26:02;;;;;;;55.67;23.75;;;;;;;;;;4990737;28;20395;-65
2022/04/23 10:28:28;;;;;;;50.60;24.00;;;;;;;;;;4971342;28;20039;-65
2022/04/23 10:31:15;;;;;;;55.97;22.55;;;;;;;;;;4971644;28;20397;-65
2022/04/23 10:33:52;;;;;;;50.05;23.20;;;;;;;;;;4971380;28;20076;-65
2022/04/23 10:36:18;;;;;;;58.15;24.75;;;;;;;;;;4970983;28;20548;-65
2022/04/23 10:38:48;;;;;;;48.00;22.33;;;;;;;;;;4980204;28;20058;-66
2022/04/23 10:41:14;;;;;;;55.03;24.50;;;;;;;;;;4976258;28;20049;-66
2022/04/23 10:43:47;;;;;;;55.88;25.10;;;;;;;;;;4978331;28;20088;-66
2022/04/23 10:46:13;;;;;;;;;;;;;;;;;;4971184;28;20042;-66
2022/04/23 10:48:45;;;;;;;47.40;23.25;;;;;;;;;;4970272;28;19906;-66
2022/04/23 10:51:16;;;;;;;59.85;26.92;;;;;;;;;;4970858;28;20067;-66
2022/04/23 10:53:42;;;;;;;61.95;26.05;;;;;;;;;;4970433;28;20050;-66
2022/04/23 10:56:13;;;;;;;56.55;25.77;;;;;;;;;;4970468;28;20122;-66
2022/04/23 10:58:40;;;;;;;66.10;28.50;;;;;;;;;;4974920;28;20492;-66
2022/04/23 11:01:21;;;;;;;67.85;26.88;;;;;;;;;;4990061;28;20038;-66
2022/04/23 11:03:53;;;;;;;52.67;26.23;;;;;;;;;;4984475;28;20033;-66
2022/04/23 11:12:17;;;;;;;;;;;;;;;;;;4976619;28;20037;-66
2022/04/23 11:14:52;;;;;;;69.18;28.38;;;;;;;;;;4989612;28;19913;-66
2022/04/23 11:17:23;;;;;;;63.17;28.20;;;;;;;;;;4986862;28;20022;-66
2022/04/23 11:19:52;;;;;;;61.60;28.00;;;;;;;;;;4987248;28;20063;-66
2022/04/23 11:22:20;;;;;;;71.70;32.38;;;;;;;;;;4987537;28;20106;-66
2022/04/23 11:24:48;;;;;;;66.55;30.63;;;;;;;;;;4985009;28;20468;-66
2022/04/23 11:27:48;;;;;;;73.68;32.28;;;;;;;;;;4975298;28;20031;-66
2022/04/23 11:30:14;;;;;;;70.43;33.20;;;;;;;;;;4987008;28;20034;-66
2022/04/23 11:32:40;;;;;;;67.70;30.65;;;;;;;;;;4986694;28;20092;-66
2022/04/23 11:35:07;;;;;;;66.90;31.38;;;;;;;;;;4980573;28;20018;-66
2022/04/23 11:37:35;;;;;;;64.80;31.30;;;;;;;;;;4978783;28;20080;-65
2022/04/23 11:40:08;;;;;;;63.03;30.60;;;;;;;;;;4984931;28;20053;-65
2022/04/23 11:42:40;;;;;;;63.58;31.48;;;;;;;;;;5013492;28;20439;-65
2022/04/23 11:45:08;;;;;;;61.30;30.23;;;;;;;;;;4970139;28;20033;-65
2022/04/23 11:47:34;;;;;;;59.65;31.27;;;;;;;;;;4969495;28;20085;-65
2022/04/23 11:50:13;;;;;;;71.38;31.92;;;;;;;;;;4971716;28;20060;-65
2022/04/23 11:52:40;;;;;;;63.85;29.27;;;;;;;;;;4984682;28;20105;-65
2022/04/23 11:55:08;;;;;;;56.70;30.27;;;;;;;;;;4985775;28;20050;-66
2022/04/23 11:57:36;;;;;;;67.35;32.50;;;;;;;;;;4985107;28;20049;-65
2022/04/23 12:00:03;;;;;;;64.72;31.23;;;;;;;;;;4987591;28;20042;-65
2022/04/23 12:02:31;;;;;;;58.67;31.25;;;;;;;;;;4987933;28;20567;-65
2022/04/23 12:04:58;;;;;;;58.63;29.77;;;;;;;;;;4984976;28;20180;-65
2022/04/23 12:07:25;;;;;;;64.97;30.90;;;;;;;;;;4983517;28;20026;-66
2022/04/23 12:09:52;;;;;;;64.97;31.20;;;;;;;;;;4982854;28;20010;-65
2022/04/23 12:12:19;;;;;;;59.58;30.17;;;;;;;;;;4984079;28;20018;-65
2022/04/23 12:14:49;;;;;;;55.30;29.42;;;;;;;;;;4983457;28;20491;-65
2022/04/23 12:17:21;;;;;;;63.00;31.17;;;;;;;;;;4984406;28;20035;-65
2022/04/23 12:19:51;;;;;;;65.95;31.33;;;;;;;;;;4986747;28;20228;-66
2022/04/23 12:22:31;;;;;;;63.05;31.73;;;;;;;;;;4985262;28;20034;-65
2022/04/23 12:25:10;;;;;;;63.80;32.78;;;;;;;;;;4984558;28;20663;-65
2022/04/23 12:27:55;;;;;;;55.67;29.92;;;;;;;;;;4981876;28;20035;-66
2022/04/23 12:42:01;;;;;;;61.58;29.17;;;;;;;;;;4984391;28;20602;-65
2022/04/23 12:44:44;;;;;;;62.15;29.17;;;;;;;;;;4984402;28;20502;-65
2022/04/23 12:47:12;;;;;;;55.78;29.17;;;;;;;;;;4982394;28;20055;-66
2022/04/23 12:49:45;;;;;;;59.13;29.00;;;;;;;;;;4984808;28;20027;-66
2022/04/23 12:52:14;;;;;;;66.68;30.35;;;;;;;;;;4984666;28;20045;-66
2022/04/23 12:54:40;;;;;;;59.33;28.33;;;;;;;;;;4987637;28;20502;-65
2022/04/23 12:57:16;;;;;;;65.53;30.73;;;;;;;;;;4990127;28;20070;-66
2022/04/23 12:59:42;;;;;;;68.45;31.67;;;;;;;;;;4979326;28;20026;-66
2022/04/23 13:02:09;;;;;;;71.70;29.23;;;;;;;;;;4980108;28;20070;-66
2022/04/23 13:04:35;;;;;;;66.45;32.33;;;;;;;;;;4974661;28;20056;-65
2022/04/23 13:09:45;;;;;;;68.93;29.10;;;;;;;;;;4975131;28;20027;-65
2022/04/23 13:12:11;;;;;;;63.90;29.98;;;;;;;;;;4976656;28;20056;-65
2022/04/23 13:14:38;;;;;;;68.90;30.50;;;;;;;;;;4973408;28;20031;-66
2022/04/23 13:17:04;;;;;;;65.40;29.23;;;;;;;;;;4978604;28;20364;-66
2022/04/23 13:19:30;;;;;;;73.95;31.00;;;;;;;;;;4986119;28;20497;-66
2022/04/23 13:21:56;;;;;;;62.92;30.10;;;;;;;;;;4987751;28;20034;-66
2022/04/23 13:24:22;;;;;;;60.03;31.95;;;;;;;;;;4985624;28;20395;-65
2022/04/23 13:26:49;;;;;;;64.20;29.83;;;;;;;;;;4984604;28;20058;-66
2022/04/23 13:29:15;;;;;;;70.38;32.13;;;;;;;;;;4985844;28;20044;-66
2022/04/23 13:31:41;;;;;;;64.72;30.50;;;;;;;;;;4975935;28;20041;-66
2022/04/23 13:34:07;;;;;;;64.22;30.73;;;;;;;;;;4978664;28;20027;-65
2022/04/23 13:36:34;;;;;;;58.58;31.42;;;;;;;;;;4977780;28;20535;-66
2022/04/23 13:39:00;;;;;;;58.40;29.00;;;;;;;;;;4972895;28;20034;-65
2022/04/23 13:41:26;;;;;;;57.92;28.73;;;;;;;;;;4972949;28;20050;-65
2022/04/23 13:43:52;;;;;;;56.50;28.15;;;;;;;;;;4974335;28;20026;-66
2022/04/23 13:46:18;;;;;;;59.67;28.08;;;;;;;;;;4979537;28;20041;-65
2022/04/23 13:48:44;;;;;;;58.30;27.23;;;;;;;;;;4975790;28;20522;-65
2022/04/23 13:51:10;;;;;;;51.60;27.40;;;;;;;;;;4975284;28;20704;-66
2022/04/23 13:53:36;;;;;;;57.63;29.23;;;;;;;;;;4986181;28;20037;-65
2022/04/23 13:56:03;;;;;;;57.22;27.15;;;;;;;;;;4974334;28;20092;-65
2022/04/23 13:58:30;;;;;;;48.80;26.02;;;;;;;;;;4973713;28;20043;-66
2022/04/23 14:00:56;;;;;;;51.13;26.38;;;;;;;;;;4978251;28;20060;-66
2022/04/23 14:11:36;;;;;;;61.50;27.38;;;;;;;;;;4974808;28;20030;-66
2022/04/23 14:14:03;;;;;;;48.60;26.75;;;;;;;;;;4973361;28;20030;-66
2022/04/23 14:16:29;;;;;;;55.15;27.15;;;;;;;;;;4981149;28;20026;-66
2022/04/23 14:18:56;;;;;;;58.25;26.90;;;;;;;;;;4983697;28;20082;-66
2022/04/23 14:21:22;;;;;;;61.30;27.77;;;;;;;;;;4985122;28;20370;-66
2022/04/23 14:23:49;;;;;;;57.53;28.20;;;;;;;;;;4997931;28;20373;-66
2022/04/23 14:26:15;;;;;;;61.47;27.60;;;;;;;;;;5001955;28;20520;-66
2022/04/23 14:28:41;;;;;;;57.33;28.05;;;;;;;;;;4982237;28;20105;-66
2022/04/23 14:31:07;;;;;;;62.90;27.75;;;;;;;;;;4982253;28;20029;-66
2022/04/23 14:33:34;;;;;;;66.38;28.13;;;;;;;;;;4976200;28;20027;-66
2022/04/23 14:36:01;;;;;;;55.65;28.00;;;;;;;;;;4970128;28;20042;-66
2022/04/23 14:38:29;;;;;;;54.17;28.58;;;;;;;;;;4978083;28;20031;-66
2022/04/23 14:40:55;;;;;;;52.55;28.23;;;;;;;;;;4976854;28;20043;-66
2022/04/23 14:43:21;;;;;;;53.30;28.02;;;;;;;;;;4974718;28;20569;-66
2022/04/23 14:45:47;;;;;;;56.40;27.30;;;;;;;;;;4972230;28;20038;-66
2022/04/23 14:48:13;;;;;;;49.28;26.27;;;;;;;;;;4971448;28;20029;-66
2022/04/23 14:53:25;;;;;;;53.28;27.58;;;;;;;;;;4987445;28;20035;-66
2022/04/23 14:55:51;;;;;;;53.13;26.35;;;;;;;;;;4982675;28;20022;-66
2022/04/23 14:58:17;;;;;;;50.80;25.30;;;;;;;;;;4984362;28;20042;-66
2022/04/23 15:00:44;;;;;;;63.38;27.00;;;;;;;;;;4986643;28;20046;-66
2022/04/23 15:03:10;;;;;;;58.80;28.23;;;;;;;;;;4986598;28;20471;-66
2022/04/23 15:05:36;;;;;;;55.92;27.13;;;;;;;;;;4988588;28;20487;-66
2022/04/23 15:08:02;;;;;;;59.95;27.70;;;;;;;;;;4988472;28;20472;-66
2022/04/23 15:10:28;;;;;;;52.33;27.00;;;;;;;;;;4984438;28;20067;-66